Time;durP1;ratioP1;P1;durP2;ratioP2;P2;SDS_P1;SDS_P2;PMS_P1;PMS_P2;Temp;Humidity;BMP_temperature;BMP_pressure;BME280_temperature;BME280_humidity;BME280_pressure;Samples;Min_cycle;Max_cycle;Signal;HPM_P1;HPM_P2
2022/01/17 00:00:23;;;;;;;37.27;21.87;;;;;;;;;;5043749;28;20188;-55
2022/01/17 00:02:50;;;;;;;35.10;21.30;;;;;;;;;;5045281;28;20413;-54
2022/01/17 00:05:16;;;;;;;36.77;20.00;;;;;;;;;;5047571;28;20187;-54
2022/01/17 00:07:43;;;;;;;32.70;20.00;;;;;;;;;;5050195;28;20176;-54
2022/01/17 00:10:09;;;;;;;37.93;21.53;;;;;;;;;;5046962;28;20192;-54
2022/01/17 00:12:38;;;;;;;35.77;21.40;;;;;;;;;;5054539;28;20192;-53
2022/01/17 00:15:13;;;;;;;31.47;20.20;;;;;;;;;;5046594;28;20185;-53
2022/01/17 00:17:42;;;;;;;35.93;19.43;;;;;;;;;;5046732;28;20176;-53
2022/01/17 00:20:10;;;;;;;31.80;20.53;;;;;;;;;;5045964;28;20203;-53
2022/01/17 00:22:39;;;;;;;29.70;18.97;;;;;;;;;;5047345;28;20189;-54
2022/01/17 00:25:05;;;;;;;31.30;19.33;;;;;;;;;;5047313;28;20177;-53
2022/01/17 00:27:32;;;;;;;35.03;19.53;;;;;;;;;;5048141;28;20189;-53
2022/01/17 00:29:58;;;;;;;34.53;20.73;;;;;;;;;;5052563;28;20177;-53
2022/01/17 00:32:25;;;;;;;31.30;19.37;;;;;;;;;;5047025;28;20233;-53
2022/01/17 00:34:51;;;;;;;30.80;19.03;;;;;;;;;;5047120;28;20196;-54
2022/01/17 00:37:17;;;;;;;33.00;18.43;;;;;;;;;;5065596;28;20169;-53
2022/01/17 00:39:46;;;;;;;28.77;18.60;;;;;;;;;;5051888;28;20184;-54
2022/01/17 00:42:12;;;;;;;32.53;19.77;;;;;;;;;;5047774;28;20557;-53
2022/01/17 00:44:38;;;;;;;33.03;19.73;;;;;;;;;;5044501;28;20292;-52
2022/01/17 00:47:04;;;;;;;31.77;19.10;;;;;;;;;;5047812;28;20726;-53
2022/01/17 00:49:30;;;;;;;27.90;19.97;;;;;;;;;;5046545;28;20228;-53
2022/01/17 00:51:56;;;;;;;32.20;21.07;;;;;;;;;;5057983;28;20216;-53
2022/01/17 00:54:22;;;;;;;30.93;20.03;;;;;;;;;;5057662;28;20199;-53
2022/01/17 00:56:49;;;;;;;33.07;20.27;;;;;;;;;;5049653;28;20193;-54
2022/01/17 00:59:15;;;;;;;34.60;21.63;;;;;;;;;;5051194;28;20575;-54
2022/01/17 01:01:41;;;;;;;31.17;18.67;;;;;;;;;;5050333;28;20174;-52
2022/01/17 01:04:08;;;;;;;34.33;19.97;;;;;;;;;;5055515;28;20235;-53
2022/01/17 01:06:36;;;;;;;34.60;21.37;;;;;;;;;;5046412;28;20729;-54
2022/01/17 01:09:02;;;;;;;33.47;21.33;;;;;;;;;;5048341;28;20196;-53
2022/01/17 01:11:28;;;;;;;31.83;20.53;;;;;;;;;;5052249;28;20578;-53
2022/01/17 01:13:54;;;;;;;33.87;20.93;;;;;;;;;;5053182;28;20212;-53
2022/01/17 01:29:18;;;;;;;29.63;19.60;;;;;;;;;;5042222;28;20250;-54
2022/01/17 01:31:52;;;;;;;36.73;21.47;;;;;;;;;;5042357;28;20181;-53
2022/01/17 01:34:26;;;;;;;31.03;20.47;;;;;;;;;;5042767;28;20203;-53
2022/01/17 01:36:52;;;;;;;35.23;20.93;;;;;;;;;;5042362;28;20169;-53
2022/01/17 01:39:23;;;;;;;35.17;21.87;;;;;;;;;;5057705;28;20173;-53
2022/01/17 01:41:49;;;;;;;37.57;23.03;;;;;;;;;;5050056;28;20648;-53
2022/01/17 01:44:17;;;;;;;38.67;21.97;;;;;;;;;;5049567;28;20169;-53
2022/01/17 01:46:44;;;;;;;38.53;23.00;;;;;;;;;;5048932;28;20174;-53
2022/01/17 01:49:11;;;;;;;38.80;23.13;;;;;;;;;;5056582;28;20177;-53
2022/01/17 01:51:37;;;;;;;32.27;21.40;;;;;;;;;;5052188;28;20213;-53
2022/01/17 01:54:03;;;;;;;39.87;22.07;;;;;;;;;;5048154;28;20209;-53
2022/01/17 01:56:30;;;;;;;38.00;22.87;;;;;;;;;;5048348;28;20204;-54
2022/01/17 01:58:56;;;;;;;40.17;23.23;;;;;;;;;;5048135;28;20306;-53
2022/01/17 02:01:26;;;;;;;37.13;23.27;;;;;;;;;;5050771;28;20252;-53
2022/01/17 02:03:52;;;;;;;37.30;22.07;;;;;;;;;;5047658;28;20187;-54
2022/01/17 02:06:18;;;;;;;39.80;22.60;;;;;;;;;;5045130;28;20642;-52
2022/01/17 02:08:44;;;;;;;44.23;23.70;;;;;;;;;;5043552;28;20651;-53
2022/01/17 02:11:10;;;;;;;40.50;24.37;;;;;;;;;;5051649;28;20377;-54
2022/01/17 02:13:38;;;;;;;37.90;22.90;;;;;;;;;;5048149;28;20193;-53
2022/01/17 02:16:05;;;;;;;43.60;23.57;;;;;;;;;;5057443;28;20691;-54
2022/01/17 02:18:31;;;;;;;38.00;23.33;;;;;;;;;;5048449;28;20231;-54
2022/01/17 02:21:18;;;;;;;38.73;23.37;;;;;;;;;;5048756;28;20165;-52
2022/01/17 02:23:53;;;;;;;39.77;22.20;;;;;;;;;;5049168;28;20226;-53
2022/01/17 02:26:20;;;;;;;36.20;23.47;;;;;;;;;;5049005;28;20195;-52
2022/01/17 02:28:47;;;;;;;41.30;23.57;;;;;;;;;;5050139;28;20815;-53
2022/01/17 02:31:13;;;;;;;39.47;22.27;;;;;;;;;;5052714;28;20180;-53
2022/01/17 02:33:39;;;;;;;40.20;22.97;;;;;;;;;;5051407;28;20594;-53
2022/01/17 02:36:05;;;;;;;38.03;21.23;;;;;;;;;;5054983;28;20628;-54
2022/01/17 02:38:31;;;;;;;40.70;21.77;;;;;;;;;;5051624;28;20181;-53
2022/01/17 02:40:57;;;;;;;40.07;22.43;;;;;;;;;;5044265;28;20645;-54
2022/01/17 02:43:26;;;;;;;38.87;22.03;;;;;;;;;;5043446;28;20569;-54
2022/01/17 02:48:19;;;;;;;42.77;23.87;;;;;;;;;;5043746;28;20181;-53
2022/01/17 02:50:46;;;;;;;36.93;22.73;;;;;;;;;;5044391;28;20595;-54
2022/01/17 02:53:12;;;;;;;41.53;22.50;;;;;;;;;;5050647;28;20561;-53
2022/01/17 02:55:40;;;;;;;39.27;23.60;;;;;;;;;;5047765;28;20169;-53
2022/01/17 02:58:06;;;;;;;37.00;22.23;;;;;;;;;;5054123;28;20265;-53
2022/01/17 03:00:33;;;;;;;43.10;22.83;;;;;;;;;;5048435;28;20165;-53
2022/01/17 03:02:59;;;;;;;38.17;23.13;;;;;;;;;;5050458;28;20663;-53
2022/01/17 03:05:28;;;;;;;40.67;22.30;;;;;;;;;;5056215;28;20168;-53
2022/01/17 03:07:54;;;;;;;39.07;22.90;;;;;;;;;;5059349;28;20177;-53
2022/01/17 03:13:02;;;;;;;39.40;23.83;;;;;;;;;;5041291;28;20195;-53
2022/01/17 03:15:28;;;;;;;39.97;22.57;;;;;;;;;;5051670;28;20263;-53
2022/01/17 03:17:55;;;;;;;37.83;22.87;;;;;;;;;;5048002;28;20184;-53
2022/01/17 03:20:21;;;;;;;39.50;23.97;;;;;;;;;;5059918;28;20176;-54
2022/01/17 03:22:47;;;;;;;37.27;22.60;;;;;;;;;;5049908;28;20501;-53
2022/01/17 03:25:13;;;;;;;37.10;24.07;;;;;;;;;;5040482;28;20174;-53
2022/01/17 03:27:39;;;;;;;37.90;22.70;;;;;;;;;;5043670;28;20177;-53
2022/01/17 03:30:06;;;;;;;43.60;22.93;;;;;;;;;;5046881;28;20227;-53
2022/01/17 03:32:35;;;;;;;46.43;23.87;;;;;;;;;;5040604;28;20208;-53
2022/01/17 03:35:01;;;;;;;37.57;23.10;;;;;;;;;;5040062;28;20236;-52
2022/01/17 03:37:28;;;;;;;41.50;23.67;;;;;;;;;;5046816;28;20187;-53
2022/01/17 03:39:55;;;;;;;38.00;23.70;;;;;;;;;;5047392;28;20176;-54
2022/01/17 03:42:22;;;;;;;52.27;24.37;;;;;;;;;;5048615;28;20646;-53
2022/01/17 03:44:48;;;;;;;34.97;21.53;;;;;;;;;;5048408;28;20583;-53
2022/01/17 03:47:15;;;;;;;44.70;26.10;;;;;;;;;;5048048;28;20181;-53
2022/01/17 03:49:41;;;;;;;41.33;24.23;;;;;;;;;;5048933;28;20169;-53
2022/01/17 03:52:07;;;;;;;44.27;24.90;;;;;;;;;;5049816;28;20221;-53
2022/01/17 03:54:34;;;;;;;40.53;25.10;;;;;;;;;;5047042;28;20204;-53
2022/01/17 03:57:00;;;;;;;44.97;24.77;;;;;;;;;;5046014;28;20205;-52
2022/01/17 03:59:26;;;;;;;41.80;24.17;;;;;;;;;;5042580;28;20181;-53
2022/01/17 04:01:52;;;;;;;40.53;24.90;;;;;;;;;;5037950;28;20173;-54
2022/01/17 04:04:18;;;;;;;40.43;24.17;;;;;;;;;;5044248;28;20173;-53
2022/01/17 04:06:44;;;;;;;40.37;23.17;;;;;;;;;;5047118;28;20176;-53
2022/01/17 04:09:11;;;;;;;38.70;23.73;;;;;;;;;;5045047;28;20173;-53
2022/01/17 04:11:37;;;;;;;42.67;24.00;;;;;;;;;;5048585;28;20272;-53
2022/01/17 04:14:05;;;;;;;47.70;25.40;;;;;;;;;;5048497;28;20592;-53
2022/01/17 04:16:32;;;;;;;42.37;24.30;;;;;;;;;;5057091;28;20260;-53
2022/01/17 04:18:58;;;;;;;37.90;23.07;;;;;;;;;;5054524;28;20176;-54
2022/01/17 04:21:30;;;;;;;39.43;23.57;;;;;;;;;;5045990;28;20169;-54
2022/01/17 04:23:56;;;;;;;42.73;23.90;;;;;;;;;;5047387;28;20169;-52
2022/01/17 04:26:23;;;;;;;43.07;24.83;;;;;;;;;;5047972;28;20691;-54
2022/01/17 04:28:49;;;;;;;39.40;22.97;;;;;;;;;;5050759;28;20274;-53
2022/01/17 04:31:15;;;;;;;36.27;22.73;;;;;;;;;;5050476;28;20169;-53
2022/01/17 04:33:41;;;;;;;37.77;22.60;;;;;;;;;;5051792;28;20222;-53
2022/01/17 04:36:08;;;;;;;36.50;22.50;;;;;;;;;;5054707;28;20246;-54
2022/01/17 04:38:34;;;;;;;35.50;23.03;;;;;;;;;;5059336;28;20542;-53
2022/01/17 04:41:04;;;;;;;38.60;23.37;;;;;;;;;;5050810;28;20169;-53
2022/01/17 04:46:03;;;;;;;38.77;22.10;;;;;;;;;;5060514;28;20178;-54
2022/01/17 04:48:29;;;;;;;36.03;22.07;;;;;;;;;;5049491;28;20177;-53
2022/01/17 04:50:55;;;;;;;34.90;21.27;;;;;;;;;;5055453;28;20187;-53
2022/01/17 04:53:22;;;;;;;35.10;21.63;;;;;;;;;;5051721;28;20201;-54
2022/01/17 04:55:48;;;;;;;37.27;21.43;;;;;;;;;;5050737;28;20192;-54
2022/01/17 04:58:15;;;;;;;38.90;21.93;;;;;;;;;;5055509;28;20172;-53
2022/01/17 05:00:46;;;;;;;36.30;20.37;;;;;;;;;;5047733;28;20169;-53
2022/01/17 05:03:25;;;;;;;33.40;19.53;;;;;;;;;;5053400;28;20184;-52
2022/01/17 05:05:51;;;;;;;31.30;19.53;;;;;;;;;;5052225;28;20191;-53
2022/01/17 05:08:17;;;;;;;30.47;18.97;;;;;;;;;;5055640;28;20185;-52
2022/01/17 05:10:51;;;;;;;29.37;18.70;;;;;;;;;;5051653;28;20199;-53
2022/01/17 05:13:26;;;;;;;34.77;19.27;;;;;;;;;;5057668;28;20251;-53
2022/01/17 05:16:05;;;;;;;32.40;18.67;;;;;;;;;;5048436;28;20252;-53
2022/01/17 05:20:58;;;;;;;32.50;18.57;;;;;;;;;;5051035;28;20181;-54
2022/01/17 05:23:24;;;;;;;28.13;18.23;;;;;;;;;;5049184;28;20188;-53
2022/01/17 05:25:50;;;;;;;29.60;18.53;;;;;;;;;;5048897;28;20209;-52
2022/01/17 05:28:16;;;;;;;28.17;18.33;;;;;;;;;;5048697;28;20196;-53
2022/01/17 05:30:42;;;;;;;26.47;18.03;;;;;;;;;;5045287;28;20182;-53
2022/01/17 05:33:09;;;;;;;27.03;16.03;;;;;;;;;;5052318;28;20831;-54
2022/01/17 05:35:35;;;;;;;30.47;17.63;;;;;;;;;;5055417;28;20620;-53
2022/01/17 05:38:01;;;;;;;24.23;16.40;;;;;;;;;;5049672;28;20181;-53
2022/01/17 05:40:28;;;;;;;26.93;16.60;;;;;;;;;;5049336;28;20234;-54
2022/01/17 05:42:54;;;;;;;28.57;16.90;;;;;;;;;;5047526;28;20187;-54
2022/01/17 05:45:20;;;;;;;25.93;16.20;;;;;;;;;;5051383;28;20184;-54
2022/01/17 05:47:47;;;;;;;26.27;17.53;;;;;;;;;;5056178;28;20690;-53
2022/01/17 05:50:13;;;;;;;26.53;17.70;;;;;;;;;;5049109;28;20404;-53
2022/01/17 05:52:40;;;;;;;38.90;17.80;;;;;;;;;;5072739;28;20659;-54
2022/01/17 05:55:07;;;;;;;24.97;15.97;;;;;;;;;;5058956;28;20331;-53
2022/01/17 05:57:33;;;;;;;21.03;14.93;;;;;;;;;;5050575;28;20201;-54
2022/01/17 06:00:00;;;;;;;29.63;15.67;;;;;;;;;;5046128;28;20185;-54
2022/01/17 06:02:26;;;;;;;27.43;16.80;;;;;;;;;;5048954;28;20200;-53
2022/01/17 06:04:53;;;;;;;30.90;17.40;;;;;;;;;;5045527;28;20319;-53
2022/01/17 06:07:19;;;;;;;28.70;16.73;;;;;;;;;;5045619;28;20666;-54
2022/01/17 06:09:45;;;;;;;38.93;17.73;;;;;;;;;;5046840;28;20208;-53
2022/01/17 06:12:12;;;;;;;30.03;17.90;;;;;;;;;;5047361;28;20181;-53
2022/01/17 06:14:39;;;;;;;23.70;15.10;;;;;;;;;;5048745;28;20267;-54
2022/01/17 06:17:12;;;;;;;25.23;16.53;;;;;;;;;;5048342;28;20541;-55
2022/01/17 06:19:38;;;;;;;25.27;16.40;;;;;;;;;;5042118;28;20181;-53
2022/01/17 06:22:04;;;;;;;25.93;15.27;;;;;;;;;;5048211;28;20181;-54
2022/01/17 06:24:31;;;;;;;26.43;15.57;;;;;;;;;;5049455;28;20522;-53
2022/01/17 06:26:58;;;;;;;29.03;15.97;;;;;;;;;;5048213;28;20174;-54
2022/01/17 06:29:25;;;;;;;26.60;15.13;;;;;;;;;;5047738;28;20215;-54
2022/01/17 06:31:51;;;;;;;27.03;16.30;;;;;;;;;;5047426;28;20181;-53
2022/01/17 06:34:18;;;;;;;28.07;16.80;;;;;;;;;;5048531;28;20238;-54
2022/01/17 06:36:44;;;;;;;24.20;15.73;;;;;;;;;;5049787;28;20534;-53
2022/01/17 06:39:11;;;;;;;28.27;16.23;;;;;;;;;;5049042;28;20260;-53
2022/01/17 06:41:38;;;;;;;28.03;16.10;;;;;;;;;;5049212;28;20706;-54
2022/01/17 06:44:04;;;;;;;23.50;14.43;;;;;;;;;;5047453;28;20572;-54
2022/01/17 06:46:33;;;;;;;24.60;14.00;;;;;;;;;;5048276;28;20185;-53
2022/01/17 06:48:59;;;;;;;23.70;15.33;;;;;;;;;;5047587;28;20659;-53
2022/01/17 06:51:26;;;;;;;26.47;15.87;;;;;;;;;;5048272;28;20229;-53
2022/01/17 06:53:52;;;;;;;23.57;15.87;;;;;;;;;;5049086;28;20660;-53
2022/01/17 06:56:19;;;;;;;25.63;15.67;;;;;;;;;;5048997;28;20185;-53
2022/01/17 06:58:45;;;;;;;22.53;14.90;;;;;;;;;;5048550;28;20638;-53
2022/01/17 07:01:16;;;;;;;26.17;15.50;;;;;;;;;;5048510;28;20608;-54
2022/01/17 07:03:42;;;;;;;22.60;14.73;;;;;;;;;;5048381;28;20169;-54
2022/01/17 07:06:08;;;;;;;24.43;14.40;;;;;;;;;;5048626;28;20177;-53
2022/01/17 07:08:34;;;;;;;25.60;14.47;;;;;;;;;;5048436;28;20185;-53
2022/01/17 07:11:00;;;;;;;25.10;15.27;;;;;;;;;;5048326;28;20432;-54
2022/01/17 07:13:26;;;;;;;22.90;15.60;;;;;;;;;;5047312;28;20580;-54
2022/01/17 07:15:53;;;;;;;20.80;14.77;;;;;;;;;;5046454;28;20264;-54
2022/01/17 07:18:19;;;;;;;21.73;14.83;;;;;;;;;;5046883;28;20173;-54
2022/01/17 07:20:45;;;;;;;25.53;15.93;;;;;;;;;;5047340;28;20185;-54
2022/01/17 07:23:11;;;;;;;24.30;14.50;;;;;;;;;;5049150;28;20181;-54
2022/01/17 07:25:38;;;;;;;20.50;14.53;;;;;;;;;;5048473;28;20185;-54
2022/01/17 07:28:08;;;;;;;20.10;14.27;;;;;;;;;;5048241;28;20188;-53
2022/01/17 07:30:35;;;;;;;21.43;15.07;;;;;;;;;;5048076;28;20292;-53
2022/01/17 07:33:01;;;;;;;23.90;15.07;;;;;;;;;;5046632;28;20224;-55
2022/01/17 07:35:27;;;;;;;21.60;14.30;;;;;;;;;;5047103;28;20181;-55
2022/01/17 07:37:53;;;;;;;22.10;15.53;;;;;;;;;;5047442;28;20520;-54
2022/01/17 07:40:19;;;;;;;22.40;15.23;;;;;;;;;;5048161;28;20532;-54
2022/01/17 07:42:45;;;;;;;21.50;14.33;;;;;;;;;;5048784;28;20185;-54
2022/01/17 07:45:15;;;;;;;24.13;16.07;;;;;;;;;;5047737;28;20583;-54
2022/01/17 07:50:17;;;;;;;22.93;15.90;;;;;;;;;;5047578;28;20176;-54
2022/01/17 07:52:43;;;;;;;18.50;14.53;;;;;;;;;;5047400;28;20255;-53
2022/01/17 07:55:10;;;;;;;23.13;15.63;;;;;;;;;;5048227;28;20177;-53
2022/01/17 07:57:37;;;;;;;23.17;16.23;;;;;;;;;;5047937;28;20675;-55
2022/01/17 08:00:08;;;;;;;24.67;16.23;;;;;;;;;;5043264;28;20173;-55
2022/01/17 08:02:34;;;;;;;23.13;14.83;;;;;;;;;;5045949;28;20227;-54
2022/01/17 08:05:00;;;;;;;24.83;17.03;;;;;;;;;;5045917;28;20189;-55
2022/01/17 08:07:26;;;;;;;22.73;15.83;;;;;;;;;;5047512;28;20196;-54
2022/01/17 08:09:52;;;;;;;19.20;14.97;;;;;;;;;;5047805;28;20181;-54
2022/01/17 08:12:18;;;;;;;25.70;15.17;;;;;;;;;;5045991;28;20184;-54
2022/01/17 08:14:44;;;;;;;20.33;14.70;;;;;;;;;;5046686;28;20196;-55
2022/01/17 08:17:11;;;;;;;23.30;15.37;;;;;;;;;;5044644;28;20173;-53
2022/01/17 08:19:38;;;;;;;19.90;13.53;;;;;;;;;;5046952;28;20692;-53
2022/01/17 08:22:05;;;;;;;24.03;13.80;;;;;;;;;;5039508;28;20389;-53
2022/01/17 08:24:32;;;;;;;17.73;14.30;;;;;;;;;;5045321;28;20181;-54
2022/01/17 08:26:58;;;;;;;19.10;13.27;;;;;;;;;;5047630;28;20628;-54
2022/01/17 08:29:28;;;;;;;17.03;12.70;;;;;;;;;;5046013;28;20275;-54
2022/01/17 08:31:54;;;;;;;18.47;13.20;;;;;;;;;;5046242;28;20177;-54
2022/01/17 08:34:20;;;;;;;20.53;13.50;;;;;;;;;;5041569;28;20204;-54
2022/01/17 08:36:47;;;;;;;16.57;13.33;;;;;;;;;;5046610;28;20555;-54
2022/01/17 08:39:16;;;;;;;22.17;14.77;;;;;;;;;;5047415;28;20177;-53
2022/01/17 08:41:43;;;;;;;17.93;14.43;;;;;;;;;;5046249;28;20823;-54
2022/01/17 08:44:12;;;;;;;18.77;14.17;;;;;;;;;;5045151;28;20173;-53
2022/01/17 08:46:41;;;;;;;18.60;13.07;;;;;;;;;;5045315;28;20227;-54
2022/01/17 08:49:07;;;;;;;19.73;13.97;;;;;;;;;;5046310;28;20235;-54
2022/01/17 08:51:34;;;;;;;19.93;14.13;;;;;;;;;;5046411;28;20224;-53
2022/01/17 08:54:00;;;;;;;15.87;13.73;;;;;;;;;;5047194;28;20687;-54
2022/01/17 08:56:28;;;;;;;20.77;13.90;;;;;;;;;;5046603;28;20198;-53
2022/01/17 08:58:55;;;;;;;18.97;13.13;;;;;;;;;;5046413;28;20553;-54
2022/01/17 09:01:24;;;;;;;19.10;13.60;;;;;;;;;;5046359;28;20205;-54
2022/01/17 09:03:50;;;;;;;18.70;13.97;;;;;;;;;;5045543;28;20469;-55
2022/01/17 09:06:17;;;;;;;18.93;13.30;;;;;;;;;;5044683;28;20185;-53
2022/01/17 09:08:43;;;;;;;19.03;14.10;;;;;;;;;;5046378;28;20575;-53
2022/01/17 09:11:09;;;;;;;19.73;13.57;;;;;;;;;;5039158;28;20255;-54
2022/01/17 09:13:35;;;;;;;21.40;14.17;;;;;;;;;;5050016;28;20193;-54
2022/01/17 09:16:02;;;;;;;18.97;13.33;;;;;;;;;;5050276;28;20274;-54
2022/01/17 09:18:28;;;;;;;18.40;14.77;;;;;;;;;;5050944;28;20671;-55
2022/01/17 09:20:55;;;;;;;21.53;15.53;;;;;;;;;;5051058;28;20310;-55
2022/01/17 09:23:21;;;;;;;19.37;14.10;;;;;;;;;;5051624;28;20178;-53
2022/01/17 09:25:47;;;;;;;21.53;15.27;;;;;;;;;;5050940;28;20191;-54
2022/01/17 09:28:14;;;;;;;19.97;15.53;;;;;;;;;;5051082;28;20541;-53
2022/01/17 09:30:40;;;;;;;20.30;15.33;;;;;;;;;;5049864;28;20322;-54
2022/01/17 09:33:06;;;;;;;21.33;15.27;;;;;;;;;;5044176;28;20190;-54
2022/01/17 09:35:33;;;;;;;18.77;14.10;;;;;;;;;;5046195;28;20189;-54
2022/01/17 09:37:59;;;;;;;20.30;14.33;;;;;;;;;;5051116;28;20733;-54
2022/01/17 09:40:26;;;;;;;20.33;13.83;;;;;;;;;;5050537;28;20200;-55
2022/01/17 09:42:54;;;;;;;18.63;14.73;;;;;;;;;;5051126;28;20571;-54
2022/01/17 09:45:21;;;;;;;21.67;14.40;;;;;;;;;;5048222;28;20287;-54
2022/01/17 09:47:47;;;;;;;18.63;14.50;;;;;;;;;;5050660;28;20304;-53
2022/01/17 09:50:19;;;;;;;20.53;14.10;;;;;;;;;;5048756;28;20247;-54
2022/01/17 09:52:46;;;;;;;27.03;15.53;;;;;;;;;;5050250;28;20225;-54
2022/01/17 09:55:20;;;;;;;19.97;14.77;;;;;;;;;;5048905;28;20169;-54
2022/01/17 09:57:54;;;;;;;19.63;15.00;;;;;;;;;;5042649;28;20207;-54
2022/01/17 10:00:26;;;;;;;23.00;17.27;;;;;;;;;;5048934;28;20177;-54
2022/01/17 10:02:58;;;;;;;20.27;15.03;;;;;;;;;;5050003;28;20220;-54
2022/01/17 10:05:31;;;;;;;22.97;16.07;;;;;;;;;;5049772;28;20169;-53
2022/01/17 10:08:07;;;;;;;19.77;14.43;;;;;;;;;;5048554;28;20640;-55
2022/01/17 10:10:34;;;;;;;21.07;14.70;;;;;;;;;;5048244;28;20181;-55
2022/01/17 10:13:05;;;;;;;19.67;14.57;;;;;;;;;;5050064;28;20660;-53
2022/01/17 10:15:44;;;;;;;23.43;16.73;;;;;;;;;;5047472;28;20771;-53
2022/01/17 10:18:22;;;;;;;17.63;14.83;;;;;;;;;;5044206;28;20652;-54
2022/01/17 10:20:54;;;;;;;21.50;15.43;;;;;;;;;;5048107;28;20166;-55
2022/01/17 10:23:39;;;;;;;22.80;18.50;;;;;;;;;;5048508;28;20386;-53
2022/01/17 10:26:14;;;;;;;21.07;15.93;;;;;;;;;;5049036;28;20165;-54
2022/01/17 10:36:53;;;;;;;21.60;17.80;;;;;;;;;;5047686;28;20427;-54
2022/01/17 10:39:19;;;;;;;23.07;15.10;;;;;;;;;;5048210;28;20643;-54
2022/01/17 10:41:45;;;;;;;20.50;16.37;;;;;;;;;;5049673;28;20177;-54
2022/01/17 10:44:14;;;;;;;22.07;15.53;;;;;;;;;;5049310;28;20588;-54
2022/01/17 10:46:40;;;;;;;23.47;15.00;;;;;;;;;;5048274;28;20191;-53
2022/01/17 10:49:06;;;;;;;18.60;14.40;;;;;;;;;;5047565;28;20415;-53
2022/01/17 10:51:37;;;;;;;18.17;13.10;;;;;;;;;;5048478;28;20220;-53
2022/01/17 10:54:13;;;;;;;20.57;15.23;;;;;;;;;;5047303;28;20187;-52
2022/01/17 10:56:50;;;;;;;22.67;15.73;;;;;;;;;;5059726;28;20279;-55
2022/01/17 10:59:31;;;;;;;21.90;14.17;;;;;;;;;;5062727;28;20183;-53
2022/01/17 11:01:59;;;;;;;23.33;14.63;;;;;;;;;;5035923;28;20257;-53
2022/01/17 11:04:40;;;;;;;20.30;14.43;;;;;;;;;;5049392;28;20172;-54
2022/01/17 11:07:07;;;;;;;21.20;13.40;;;;;;;;;;5047777;28;20655;-53
2022/01/17 11:09:44;;;;;;;24.20;14.73;;;;;;;;;;5047245;28;20181;-53
2022/01/17 11:12:10;;;;;;;22.50;13.30;;;;;;;;;;5034461;28;20177;-54
2022/01/17 11:14:37;;;;;;;21.73;15.00;;;;;;;;;;5048313;28;20573;-53
2022/01/17 11:17:10;;;;;;;16.57;13.07;;;;;;;;;;5047168;28;20672;-54
2022/01/17 11:22:21;;;;;;;16.73;13.73;;;;;;;;;;5028633;28;20169;-54
2022/01/17 11:24:47;;;;;;;15.97;12.97;;;;;;;;;;5034725;28;20629;-54
2022/01/17 11:27:14;;;;;;;21.17;13.30;;;;;;;;;;5027346;28;20185;-53
2022/01/17 11:29:40;;;;;;;22.60;13.27;;;;;;;;;;5037146;28;20235;-54
2022/01/17 11:32:07;;;;;;;18.03;13.17;;;;;;;;;;5047309;28;20262;-54
2022/01/17 11:34:33;;;;;;;15.93;12.83;;;;;;;;;;5043222;28;20722;-54
2022/01/17 11:36:59;;;;;;;16.33;11.70;;;;;;;;;;5047632;28;20169;-54
2022/01/17 11:39:26;;;;;;;18.70;11.80;;;;;;;;;;5047997;28;20180;-53
2022/01/17 11:41:52;;;;;;;16.47;12.37;;;;;;;;;;5047212;28;20706;-53
2022/01/17 11:44:31;;;;;;;18.00;11.77;;;;;;;;;;5048255;28;20192;-54
2022/01/17 11:46:59;;;;;;;17.80;10.87;;;;;;;;;;5047348;28;20701;-53
2022/01/17 11:49:38;;;;;;;19.83;12.33;;;;;;;;;;5047168;28;20185;-55
2022/01/17 11:52:10;;;;;;;20.10;11.47;;;;;;;;;;5047802;28;20216;-53
2022/01/17 11:54:44;;;;;;;14.87;11.27;;;;;;;;;;5043654;28;20223;-53
2022/01/17 11:57:19;;;;;;;17.63;11.57;;;;;;;;;;5042128;28;20200;-53
2022/01/17 11:59:48;;;;;;;17.70;11.83;;;;;;;;;;5034945;28;20715;-54
2022/01/17 12:02:20;;;;;;;16.17;10.97;;;;;;;;;;5041825;28;20735;-53
2022/01/17 12:05:08;;;;;;;15.23;10.07;;;;;;;;;;5038589;28;20241;-55
2022/01/17 12:07:47;;;;;;;13.37;9.80;;;;;;;;;;5044550;28;20185;-54
2022/01/17 12:10:15;;;;;;;17.27;11.67;;;;;;;;;;5041203;28;20180;-53
2022/01/17 12:12:41;;;;;;;12.40;9.23;;;;;;;;;;5036257;28;20212;-55
2022/01/17 12:15:16;;;;;;;14.50;10.80;;;;;;;;;;5035731;28;20185;-53
2022/01/17 12:17:43;;;;;;;11.90;8.90;;;;;;;;;;5037494;28;20240;-53
2022/01/17 12:20:09;;;;;;;13.93;10.47;;;;;;;;;;5036359;28;20177;-53
2022/01/17 12:22:45;;;;;;;17.63;9.63;;;;;;;;;;5047173;28;20173;-54
2022/01/17 12:25:31;;;;;;;13.10;9.07;;;;;;;;;;5040203;28;20177;-54
2022/01/17 12:28:04;;;;;;;12.73;8.80;;;;;;;;;;5038187;28;20218;-54
2022/01/17 12:30:41;;;;;;;15.27;9.97;;;;;;;;;;5049969;28;20267;-54
2022/01/17 12:33:10;;;;;;;14.40;8.60;;;;;;;;;;5046086;28;20225;-54
2022/01/17 12:35:45;;;;;;;12.80;8.57;;;;;;;;;;5046604;28;20238;-53
2022/01/17 12:38:15;;;;;;;18.27;9.80;;;;;;;;;;5034013;28;20179;-54
2022/01/17 12:40:42;;;;;;;13.13;9.93;;;;;;;;;;5057169;28;20337;-53
2022/01/17 12:43:13;;;;;;;15.43;9.40;;;;;;;;;;5028708;28;20186;-55
2022/01/17 12:45:44;;;;;;;13.20;8.73;;;;;;;;;;5048141;28;20955;-53
2022/01/17 12:48:11;;;;;;;13.07;8.83;;;;;;;;;;5061750;28;20181;-54
2022/01/17 12:50:41;;;;;;;10.97;8.13;;;;;;;;;;5051393;28;20227;-55
2022/01/17 12:53:09;;;;;;;13.97;7.53;;;;;;;;;;5060785;28;20531;-55
2022/01/17 12:55:37;;;;;;;9.13;7.60;;;;;;;;;;5061751;28;20528;-54
2022/01/17 12:58:17;;;;;;;12.53;8.40;;;;;;;;;;5045623;28;20185;-53
2022/01/17 13:00:45;;;;;;;13.63;8.33;;;;;;;;;;5046286;28;20173;-53
2022/01/17 13:03:12;;;;;;;14.83;9.10;;;;;;;;;;5043938;28;20188;-54
2022/01/17 13:05:39;;;;;;;11.83;7.97;;;;;;;;;;5050499;28;20189;-54
2022/01/17 13:08:08;;;;;;;16.13;8.33;;;;;;;;;;5051819;28;20177;-53
2022/01/17 13:10:35;;;;;;;13.77;9.00;;;;;;;;;;5040145;28;20197;-53
2022/01/17 13:13:01;;;;;;;13.10;8.00;;;;;;;;;;5055077;28;20205;-55
2022/01/17 13:15:28;;;;;;;11.63;8.00;;;;;;;;;;5038281;28;20178;-54
2022/01/17 13:17:55;;;;;;;9.47;7.27;;;;;;;;;;5034679;28;20232;-53
2022/01/17 13:20:22;;;;;;;12.23;7.87;;;;;;;;;;5044172;28;20243;-53
2022/01/17 13:22:55;;;;;;;11.27;7.53;;;;;;;;;;5048090;28;20186;-53
2022/01/17 13:25:22;;;;;;;12.50;8.20;;;;;;;;;;5047158;28;20177;-53
2022/01/17 13:28:06;;;;;;;10.60;7.23;;;;;;;;;;5043072;28;20640;-53
2022/01/17 13:30:34;;;;;;;11.03;7.73;;;;;;;;;;5049477;28;20272;-55
2022/01/17 13:33:09;;;;;;;13.97;7.47;;;;;;;;;;5049457;28;20204;-54
2022/01/17 13:35:37;;;;;;;10.23;6.97;;;;;;;;;;5049410;28;20609;-53
2022/01/17 13:38:11;;;;;;;11.77;7.37;;;;;;;;;;5049269;28;20424;-53
2022/01/17 13:40:38;;;;;;;9.90;7.57;;;;;;;;;;5049619;28;20359;-54
2022/01/17 13:43:04;;;;;;;10.63;7.53;;;;;;;;;;5049211;28;20188;-54
2022/01/17 13:45:32;;;;;;;11.10;7.57;;;;;;;;;;5032632;28;20636;-53
2022/01/17 13:47:59;;;;;;;14.63;8.07;;;;;;;;;;5055562;28;20181;-54
2022/01/17 13:50:25;;;;;;;11.00;6.80;;;;;;;;;;5038421;28;20182;-54
2022/01/17 13:52:52;;;;;;;10.27;6.60;;;;;;;;;;5043275;28;20229;-53
2022/01/17 13:55:30;;;;;;;14.47;6.60;;;;;;;;;;5049403;28;20583;-54
2022/01/17 13:57:57;;;;;;;10.83;6.73;;;;;;;;;;5042619;28;20192;-53
2022/01/17 14:00:23;;;;;;;10.87;6.93;;;;;;;;;;5049411;28;20531;-54
2022/01/17 14:02:50;;;;;;;13.90;7.37;;;;;;;;;;5048522;28;20181;-53
2022/01/17 14:05:29;;;;;;;9.80;5.87;;;;;;;;;;5044868;28;20177;-53
2022/01/17 14:08:11;;;;;;;9.70;7.37;;;;;;;;;;5048362;28;20180;-53
2022/01/17 14:10:46;;;;;;;11.77;6.47;;;;;;;;;;5047710;28;20173;-54
2022/01/17 14:13:12;;;;;;;14.03;8.27;;;;;;;;;;5029260;28;20243;-54
2022/01/17 14:15:40;;;;;;;10.70;6.07;;;;;;;;;;5044184;28;20184;-53
2022/01/17 14:18:10;;;;;;;11.43;6.73;;;;;;;;;;5046698;28;20165;-54
2022/01/17 14:20:40;;;;;;;10.07;5.93;;;;;;;;;;5048395;28;20184;-53
2022/01/17 14:23:07;;;;;;;16.17;7.03;;;;;;;;;;5050679;28;20539;-52
2022/01/17 14:25:36;;;;;;;17.80;7.47;;;;;;;;;;5049623;28;20196;-53
2022/01/17 14:28:14;;;;;;;10.80;6.97;;;;;;;;;;5046539;28;20172;-53
2022/01/17 14:30:40;;;;;;;17.17;5.53;;;;;;;;;;5049198;28;20173;-53
2022/01/17 14:33:13;;;;;;;10.73;6.27;;;;;;;;;;5042453;28;20202;-54
2022/01/17 14:36:02;;;;;;;11.57;5.83;;;;;;;;;;5046329;28;20181;-54
2022/01/17 14:38:28;;;;;;;9.97;5.63;;;;;;;;;;5048434;28;20632;-54
2022/01/17 14:40:54;;;;;;;9.93;5.80;;;;;;;;;;5062135;28;20176;-54
2022/01/17 14:43:29;;;;;;;14.80;6.10;;;;;;;;;;5066588;28;20259;-53
2022/01/17 14:46:01;;;;;;;15.50;6.97;;;;;;;;;;5044401;28;20180;-53
2022/01/17 14:48:33;;;;;;;13.80;6.73;;;;;;;;;;5045269;28;20210;-54
2022/01/17 14:51:12;;;;;;;11.37;5.63;;;;;;;;;;5044561;28;20358;-53
2022/01/17 14:53:38;;;;;;;13.97;5.33;;;;;;;;;;5038894;28;20226;-54
2022/01/17 15:01:41;;;;;;;12.23;5.63;;;;;;;;;;5048787;28;20156;-53
2022/01/17 15:04:08;;;;;;;13.77;6.23;;;;;;;;;;5032977;28;20526;-54
2022/01/17 15:06:34;;;;;;;14.47;6.17;;;;;;;;;;5049568;28;20181;-54